createdAt,value
2024-04-12T02:14:38.712Z,98.68
2024-04-12T02:15:38.448Z,99.11
2024-04-12T02:16:38.361Z,98.82
2024-04-12T02:17:38.355Z,99.39
2024-04-12T02:18:38.259Z,99.99
2024-04-12T02:19:38.105Z,99.99
2024-04-12T02:20:38.113Z,99.99
2024-04-12T02:21:37.937Z,99.99
2024-04-12T02:22:37.852Z,99.99
2024-04-12T02:23:37.796Z,99.99
2024-04-12T02:24:37.682Z,99.99
2024-04-12T02:25:37.601Z,99.99
2024-04-12T02:26:37.544Z,99.99
2024-04-12T02:27:37.426Z,99.99
2024-04-12T02:28:37.349Z,99.99
2024-04-12T02:29:37.279Z,99.99
2024-04-12T02:30:37.194Z,99.99
2024-04-12T02:31:37.124Z,99.99
2024-04-12T02:32:37.078Z,99.30
2024-04-12T02:33:37.063Z,97.97
2024-04-12T02:34:36.844Z,97.12
2024-04-12T02:35:36.773Z,97.21
2024-04-12T02:36:36.683Z,97.40
2024-04-12T02:37:36.586Z,98.07
2024-04-12T02:38:36.523Z,99.20
2024-04-12T02:39:36.416Z,98.54
2024-04-12T02:40:36.334Z,99.11
2024-04-12T02:41:36.291Z,99.39
2024-04-12T02:42:36.167Z,99.30
2024-04-12T02:43:36.085Z,99.39
2024-04-12T02:44:36.022Z,99.49
2024-04-12T02:45:35.911Z,99.11
2024-04-12T02:46:35.841Z,98.54
2024-04-12T02:47:35.812Z,98.54
2024-04-12T02:48:35.713Z,98.16
2024-04-12T02:49:35.576Z,98.16
2024-04-12T02:50:35.523Z,98.82
2024-04-12T02:51:35.408Z,99.11
2024-04-12T02:52:35.345Z,99.39
2024-04-12T02:53:35.262Z,99.30
2024-04-12T02:54:35.154Z,99.68
2024-04-12T02:55:35.066Z,99.96
2024-04-12T02:56:35.028Z,99.99
2024-04-12T02:57:34.904Z,99.96
2024-04-12T02:58:34.816Z,99.99
2024-04-12T02:59:34.752Z,99.99
2024-04-12T03:00:34.668Z,99.20
2024-04-12T03:01:34.565Z,98.92
2024-04-12T03:02:34.599Z,98.54
2024-04-12T03:03:34.477Z,97.78
2024-04-12T03:04:34.325Z,97.88
2024-04-12T03:05:34.298Z,99.20
2024-04-12T03:06:34.695Z,99.20
2024-04-12T03:07:34.066Z,99.68
2024-04-12T03:08:34.315Z,99.99
2024-04-12T03:09:33.893Z,99.99
2024-04-12T03:10:33.807Z,99.99
2024-04-12T03:11:33.767Z,99.99
2024-04-12T03:12:33.638Z,99.99
2024-04-12T03:13:33.556Z,99.99
2024-04-12T03:14:33.503Z,99.99
2024-04-12T03:15:33.388Z,99.99
2024-04-12T03:16:33.337Z,99.99
2024-04-12T03:17:33.300Z,99.99
2024-04-12T03:18:33.217Z,99.99
2024-04-12T03:19:33.092Z,99.99
2024-04-12T03:20:32.984Z,99.99
2024-04-12T03:21:32.879Z,99.99
2024-04-12T03:22:32.793Z,99.87
2024-04-12T03:23:32.748Z,99.68
2024-04-12T03:24:32.629Z,99.01
2024-04-12T03:25:32.544Z,98.96
2024-04-12T03:26:32.580Z,99.20
2024-04-12T03:27:32.373Z,99.39
2024-04-12T03:28:32.294Z,98.92
2024-04-12T03:29:32.219Z,99.68
2024-04-12T03:30:32.128Z,99.96
2024-04-12T03:31:32.032Z,99.99
2024-04-12T03:32:31.990Z,99.96
2024-04-12T03:33:31.935Z,99.99
2024-04-12T03:34:31.793Z,99.34
2024-04-12T03:35:31.706Z,99.58
2024-04-12T03:36:31.629Z,99.77
2024-04-12T03:37:31.543Z,99.96
2024-04-12T03:38:31.447Z,99.96
2024-04-12T03:39:31.376Z,99.99
2024-04-12T03:40:31.283Z,99.99
2024-04-12T03:41:31.197Z,99.99
2024-04-12T03:42:31.118Z,99.99
2024-04-12T03:43:31.038Z,99.99
2024-04-12T03:44:30.948Z,99.99
2024-04-12T03:45:30.856Z,99.99
2024-04-12T03:46:30.776Z,99.63
2024-04-12T03:47:30.741Z,99.06
2024-04-12T03:48:30.727Z,99.25
2024-04-12T03:49:30.527Z,99.44
2024-04-12T03:50:30.441Z,99.25
2024-04-12T03:51:30.362Z,99.44
2024-04-12T03:52:30.271Z,99.99
2024-04-12T03:53:30.190Z,99.99
2024-04-12T03:54:30.100Z,99.99
2024-04-12T03:55:30.024Z,99.99
2024-04-12T03:56:29.933Z,99.99
2024-04-12T03:57:29.846Z,99.99
2024-04-12T03:58:29.764Z,99.99
2024-04-12T03:59:29.682Z,99.44
2024-04-12T04:00:29.617Z,98.49
2024-04-12T04:01:29.526Z,97.83
2024-04-12T04:02:29.450Z,98.39
2024-04-12T04:03:29.386Z,98.11
2024-04-12T04:04:29.295Z,98.21
2024-04-12T04:05:29.172Z,99.06
2024-04-12T04:06:29.097Z,99.15
2024-04-12T04:07:29.005Z,99.72
2024-04-12T04:08:28.923Z,99.82
2024-04-12T04:09:28.849Z,99.99
2024-04-12T04:10:28.786Z,99.99
2024-04-12T04:11:28.666Z,99.99
2024-04-12T04:12:28.588Z,99.99
2024-04-12T04:13:28.524Z,99.99
2024-04-12T04:14:28.420Z,99.99
2024-04-12T04:15:28.354Z,99.99
2024-04-12T04:16:28.246Z,99.99
2024-04-12T04:17:28.245Z,99.99
2024-04-12T04:18:28.264Z,99.99
2024-04-12T04:19:28.000Z,99.99
2024-04-12T04:20:27.909Z,99.99
2024-04-12T04:21:27.824Z,99.99
2024-04-12T04:22:27.755Z,99.99
2024-04-12T04:23:27.667Z,99.99
2024-04-12T04:24:27.581Z,99.99
2024-04-12T04:25:27.486Z,99.99
2024-04-12T04:26:27.401Z,99.99
2024-04-12T04:27:27.319Z,99.99
2024-04-12T04:28:27.238Z,99.99
2024-04-12T04:29:27.146Z,99.99
2024-04-12T04:30:27.175Z,99.99
2024-04-12T04:31:27.000Z,99.99
2024-04-12T04:32:26.936Z,99.99
2024-04-12T04:33:26.910Z,99.99
2024-04-12T04:34:26.741Z,99.99
2024-04-12T04:35:26.647Z,99.99
2024-04-12T04:36:26.563Z,99.99
2024-04-12T04:37:33.042Z,99.99
2024-04-12T04:38:26.389Z,99.63
2024-04-12T04:39:26.303Z,99.34
2024-04-12T04:40:26.224Z,98.77
2024-04-12T04:41:27.669Z,99.34
2024-04-12T04:42:26.058Z,99.06
2024-04-12T04:43:25.968Z,99.53
2024-04-12T04:44:25.883Z,98.96
2024-04-12T04:45:25.809Z,99.06
2024-04-12T04:46:25.731Z,99.63
2024-04-12T04:47:25.664Z,99.99
2024-04-12T04:48:25.654Z,99.99
2024-04-12T04:49:25.549Z,99.99
2024-04-12T04:50:25.379Z,99.99
2024-04-12T04:51:25.292Z,99.99
2024-04-12T04:52:25.203Z,99.99
2024-04-12T04:53:25.122Z,99.99
2024-04-12T04:54:25.045Z,99.99
2024-04-12T04:55:24.965Z,99.99
2024-04-12T04:56:24.878Z,99.99
2024-04-12T04:57:24.783Z,99.99
2024-04-12T04:58:24.699Z,99.99
2024-04-12T04:59:24.615Z,99.99
2024-04-12T05:00:25.053Z,99.99
2024-04-12T05:01:24.446Z,99.99
2024-04-12T05:02:24.368Z,99.99
2024-04-12T05:03:24.432Z,99.99
2024-04-12T05:04:24.236Z,99.99
2024-04-12T05:05:26.035Z,99.99
2024-04-12T05:06:24.028Z,99.99
2024-04-12T05:07:23.951Z,99.99
2024-04-12T05:08:23.853Z,99.99
2024-04-12T05:09:23.772Z,99.99
2024-04-12T05:10:23.708Z,99.99
2024-04-12T05:11:23.600Z,99.99
2024-04-12T05:12:23.580Z,99.99
2024-04-12T05:13:23.432Z,99.99
2024-04-12T05:14:23.345Z,99.99
2024-04-12T05:15:23.278Z,99.99
2024-04-12T05:16:23.247Z,99.99
2024-04-12T05:17:23.257Z,99.99
2024-04-12T05:18:23.123Z,99.99
2024-04-12T05:19:22.936Z,99.99
2024-04-12T05:20:22.840Z,99.99
2024-04-12T05:21:22.785Z,99.99
2024-04-12T05:22:22.670Z,99.99
2024-04-12T05:23:22.729Z,99.99
2024-04-12T05:24:22.512Z,99.99
2024-04-12T05:25:22.420Z,99.99
2024-04-12T05:26:22.463Z,99.99
2024-04-12T05:27:22.274Z,99.99
2024-04-12T05:28:22.182Z,99.99
2024-04-12T05:29:22.085Z,99.99
2024-04-12T05:30:21.996Z,99.99
2024-04-12T05:31:21.944Z,99.99
2024-04-12T05:32:21.871Z,99.99
2024-04-12T05:33:21.869Z,99.99
2024-04-12T05:34:21.662Z,99.99
2024-04-12T05:35:21.577Z,99.99
2024-04-12T05:36:21.512Z,99.99
2024-04-12T05:37:21.404Z,99.99
2024-04-12T05:38:21.324Z,99.99
2024-04-12T05:39:21.257Z,99.99
2024-04-12T05:40:21.152Z,99.99
2024-04-12T05:41:21.075Z,99.99
2024-04-12T05:42:20.978Z,99.99
2024-04-12T05:43:20.896Z,99.99
2024-04-12T05:44:20.812Z,99.99
2024-04-12T05:45:20.762Z,99.99
2024-04-12T05:46:20.641Z,99.99
2024-04-12T05:47:20.643Z,99.99
2024-04-12T05:48:20.522Z,99.99
2024-04-12T05:49:20.391Z,99.99
2024-04-12T05:50:20.307Z,99.99
2024-04-12T05:51:22.148Z,99.99
2024-04-12T05:52:20.137Z,99.99
2024-04-12T05:53:20.053Z,99.99
2024-04-12T05:54:19.967Z,99.99
2024-04-12T05:55:19.948Z,99.99
2024-04-12T05:56:19.878Z,99.99
2024-04-12T05:57:19.752Z,99.99
2024-04-12T05:58:19.631Z,99.99
2024-04-12T05:59:19.554Z,99.99
2024-04-12T06:00:19.509Z,99.99
2024-04-12T06:01:19.404Z,99.99
2024-04-12T06:02:19.327Z,99.99
2024-04-12T06:03:19.396Z,99.99
2024-04-12T06:04:19.174Z,99.99
2024-04-12T06:05:19.041Z,99.99
2024-04-12T06:06:19.000Z,99.99
2024-04-12T06:07:18.884Z,99.99
2024-04-12T06:08:18.796Z,99.99
2024-04-12T06:09:20.125Z,99.99
2024-04-12T06:10:18.622Z,99.99
2024-04-12T06:11:18.900Z,99.99
2024-04-12T06:12:18.626Z,99.99
2024-04-12T06:13:18.368Z,99.99
2024-04-12T06:14:18.288Z,99.99
2024-04-12T06:15:18.256Z,99.99
2024-04-12T06:16:18.233Z,99.99
2024-04-12T06:17:18.035Z,99.99
2024-04-12T06:18:18.107Z,99.99
2024-04-12T06:19:17.869Z,99.99
2024-04-12T06:20:17.782Z,99.99
2024-04-12T06:21:17.793Z,99.99
2024-04-12T06:22:17.612Z,99.99
2024-04-12T06:23:17.532Z,99.99
2024-04-12T06:24:17.663Z,99.99
2024-04-12T06:25:17.389Z,99.99
2024-04-12T06:26:17.298Z,99.99
2024-04-12T06:27:17.227Z,99.99
2024-04-12T06:28:17.119Z,99.99
2024-04-12T06:29:22.557Z,99.99
2024-04-12T06:30:17.025Z,99.99
2024-04-12T06:31:16.860Z,99.99
2024-04-12T06:32:16.794Z,99.99
2024-04-12T06:33:16.809Z,99.99
2024-04-12T06:34:16.632Z,99.99
2024-04-12T06:35:16.528Z,99.99
2024-04-12T06:36:16.480Z,99.99
2024-04-12T06:37:16.363Z,99.99
2024-04-12T06:38:16.275Z,99.99
2024-04-12T06:39:16.235Z,99.99
2024-04-12T06:40:16.110Z,99.99
2024-04-12T06:41:16.031Z,99.99
2024-04-12T06:42:16.048Z,99.99
2024-04-12T06:43:16.648Z,99.99
2024-04-12T06:44:15.771Z,99.99
2024-04-12T06:45:15.750Z,99.99
2024-04-12T06:46:15.834Z,99.99
2024-04-12T06:47:15.558Z,99.99
2024-04-12T06:48:15.483Z,99.99
2024-04-12T06:49:15.354Z,99.99
2024-04-12T06:50:15.275Z,99.99
2024-04-12T06:51:15.438Z,99.99
2024-04-12T06:52:15.104Z,99.99
2024-04-12T06:53:15.027Z,99.99
2024-04-12T06:54:15.054Z,99.99
2024-04-12T06:55:14.860Z,99.99
2024-04-12T06:56:14.782Z,99.99
2024-04-12T06:57:14.695Z,99.99
2024-04-12T06:58:14.606Z,99.99
2024-04-12T06:59:14.523Z,99.99
2024-04-12T07:00:14.510Z,99.99
2024-04-12T07:01:14.444Z,99.99
2024-04-12T07:02:14.285Z,99.99
2024-04-12T07:03:14.317Z,99.99
2024-04-12T07:04:14.124Z,99.99
2024-04-12T07:05:14.050Z,99.99
2024-04-12T07:06:13.977Z,99.99
2024-04-12T07:07:13.854Z,99.99
2024-04-12T07:08:13.779Z,99.99
2024-04-12T07:09:13.726Z,99.99
2024-04-12T07:10:13.616Z,99.99
2024-04-12T07:11:13.555Z,99.99
2024-04-12T07:12:13.481Z,99.99
2024-04-12T07:13:13.357Z,99.99
2024-04-12T07:14:13.287Z,99.99
2024-04-12T07:15:13.255Z,99.99
2024-04-12T07:16:13.114Z,99.99
2024-04-12T07:17:13.070Z,99.99
2024-04-12T07:18:12.999Z,99.99
2024-04-12T07:19:12.861Z,99.99
2024-04-12T07:20:12.779Z,99.99
2024-04-12T07:21:12.779Z,99.99
2024-04-12T07:22:12.613Z,99.99
2024-04-12T07:23:12.542Z,99.99
2024-04-12T07:24:12.503Z,99.99
2024-04-12T07:25:12.369Z,99.99
2024-04-12T07:26:12.284Z,99.99
2024-04-12T07:27:12.250Z,99.99
2024-04-12T07:28:12.117Z,99.99
2024-04-12T07:29:12.039Z,99.99
2024-04-12T07:30:12.049Z,99.99
2024-04-12T07:31:11.872Z,99.99
2024-04-12T07:32:14.820Z,99.99
2024-04-12T07:33:11.771Z,99.55
2024-04-12T07:34:11.683Z,99.32
2024-04-12T07:35:11.545Z,97.99
2024-04-12T07:36:11.536Z,97.13
2024-04-12T07:37:11.380Z,96.36
2024-04-12T07:38:11.297Z,94.93
2024-04-12T07:39:11.400Z,95.32
2024-04-12T07:40:11.134Z,94.56
2024-04-12T07:41:11.054Z,94.51
2024-04-12T07:42:11.057Z,93.65
2024-04-12T07:43:11.979Z,93.08
2024-04-12T07:44:10.809Z,92.98
2024-04-12T07:45:10.793Z,91.93
2024-04-12T07:46:10.652Z,92.36
2024-04-12T07:47:10.595Z,91.88
2024-04-12T07:48:10.557Z,91.31
2024-04-12T07:49:10.414Z,91.12
2024-04-12T07:50:10.317Z,91.12
2024-04-12T07:51:10.252Z,91.16
2024-04-12T07:52:10.165Z,91.36
2024-04-12T07:53:10.080Z,90.40
2024-04-12T07:54:10.044Z,90.40
2024-04-12T07:55:09.917Z,90.88
2024-04-12T07:56:10.682Z,90.59
2024-04-12T07:57:09.931Z,88.63
2024-04-12T07:58:09.673Z,88.44
2024-04-12T07:59:09.594Z,89.97
2024-04-12T08:00:09.586Z,90.01
2024-04-12T08:01:09.454Z,89.06
2024-04-12T08:02:11.253Z,90.20
2024-04-12T08:03:09.341Z,89.34
2024-04-12T08:04:09.235Z,88.43
2024-04-12T08:05:09.116Z,87.86
2024-04-12T08:06:09.120Z,85.94
2024-04-12T08:07:08.947Z,87.38
2024-04-12T08:08:08.870Z,88.34
2024-04-12T08:09:08.904Z,87.38
2024-04-12T08:10:08.705Z,86.18
2024-04-12T08:11:08.650Z,86.28
2024-04-12T08:12:08.616Z,84.65
2024-04-12T08:13:08.477Z,85.32
2024-04-12T08:14:08.391Z,85.51
2024-04-12T08:15:08.836Z,85.61
2024-04-12T08:16:08.224Z,83.16
2024-04-12T08:17:08.189Z,83.06
2024-04-12T08:18:08.182Z,84.26
2024-04-12T08:19:08.068Z,83.20
2024-04-12T08:20:07.907Z,83.20
2024-04-12T08:21:10.273Z,82.92
2024-04-12T08:22:07.757Z,83.01
2024-04-12T08:23:07.674Z,83.25
2024-04-12T08:24:07.626Z,82.76
2024-04-12T08:25:07.519Z,82.38
2024-04-12T08:26:07.433Z,80.79
2024-04-12T08:27:07.436Z,80.32
2024-04-12T08:28:07.276Z,79.45
2024-04-12T08:29:07.198Z,79.07
2024-04-12T08:30:07.216Z,79.07
2024-04-12T08:31:07.339Z,79.74
2024-04-12T08:32:06.982Z,79.45
2024-04-12T08:33:07.025Z,79.74
2024-04-12T08:34:06.911Z,79.30
2024-04-12T08:35:06.740Z,79.49
2024-04-12T08:36:06.713Z,79.11
2024-04-12T08:37:06.566Z,78.92
2024-04-12T08:38:06.497Z,80.16
2024-04-12T08:39:06.501Z,80.58
2024-04-12T08:40:06.349Z,79.53
2024-04-12T08:41:06.251Z,78.47
2024-04-12T08:42:06.204Z,75.79
2024-04-12T08:43:06.104Z,74.93
2024-04-12T08:44:06.017Z,72.91
2024-04-12T08:45:06.024Z,73.20
2024-04-12T08:46:05.862Z,73.58
2024-04-12T08:47:05.854Z,74.48
2024-04-12T08:48:05.942Z,75.06
2024-04-12T08:49:07.444Z,75.06
2024-04-12T08:50:05.551Z,75.92
2024-04-12T08:51:05.621Z,77.56
2024-04-12T08:52:05.395Z,76.06
2024-04-12T08:53:05.319Z,75.20
2024-04-12T08:54:05.463Z,73.18
2024-04-12T08:56:05.086Z,74.96
2024-04-12T08:57:05.035Z,77.01
2024-04-12T08:58:04.926Z,76.44
2024-04-12T08:59:04.847Z,77.01
2024-04-12T09:00:04.844Z,75.87
2024-04-12T09:01:04.718Z,76.19
2024-04-12T09:02:04.619Z,76.39
2024-04-12T09:03:05.009Z,71.77
2024-04-12T09:04:04.718Z,69.08
2024-04-12T09:05:04.416Z,69.46
2024-04-12T09:06:04.387Z,70.62
2024-04-12T09:07:04.228Z,70.33
2024-04-12T09:08:06.775Z,69.18
2024-04-12T09:09:04.205Z,71.58
2024-04-12T09:10:04.014Z,72.73
2024-04-12T09:11:05.606Z,71.29
2024-04-12T09:12:03.914Z,67.25
2024-04-12T09:13:03.809Z,67.74
2024-04-12T09:14:03.697Z,67.93
2024-04-12T09:15:03.673Z,67.07
2024-04-12T09:16:03.568Z,66.58
2024-04-12T09:17:03.571Z,66.42
2024-04-12T09:18:03.574Z,66.81
2024-04-12T09:19:03.356Z,68.35
2024-04-12T09:20:03.235Z,70.17
2024-04-12T09:21:03.805Z,67.29
2024-04-12T09:22:03.082Z,65.75
2024-04-12T09:23:03.019Z,65.08
2024-04-12T09:24:02.938Z,64.31
2024-04-12T09:25:02.871Z,66.74
2024-04-12T09:26:05.577Z,68.09
2024-04-12T09:27:02.738Z,69.82
2024-04-12T09:28:02.640Z,70.01
2024-04-12T09:29:02.539Z,67.03
2024-04-12T09:30:02.515Z,65.59
2024-04-12T09:31:02.388Z,64.53
2024-04-12T09:32:02.316Z,65.05
2024-04-12T09:33:02.367Z,65.72
2024-04-12T09:34:02.316Z,65.43
2024-04-12T09:35:02.112Z,66.49
2024-04-12T09:36:02.033Z,66.58
2024-04-12T09:37:01.922Z,66.97
2024-04-12T09:38:01.851Z,66.97
2024-04-12T09:39:01.848Z,68.13
2024-04-12T09:40:01.764Z,64.95
2024-04-12T09:41:01.620Z,63.60
2024-04-12T09:42:01.630Z,64.18
2024-04-12T09:43:01.522Z,67.07
2024-04-12T09:44:01.413Z,67.26
2024-04-12T09:45:01.482Z,69.28
2024-04-12T09:46:01.234Z,67.74
2024-04-12T09:47:01.196Z,65.63
2024-04-12T09:48:01.248Z,66.49
2024-04-12T09:49:01.175Z,66.94
2024-04-12T09:50:00.944Z,68.38
2024-04-12T09:51:00.918Z,68.22
2024-04-12T09:52:00.781Z,66.07
2024-04-12T09:53:00.723Z,69.24
2024-04-12T09:54:00.685Z,68.70
2024-04-12T09:55:00.552Z,65.91
2024-04-12T09:56:00.476Z,68.32
2024-04-12T09:57:00.473Z,68.60
2024-04-12T09:58:00.325Z,66.68
2024-04-12T09:59:00.249Z,65.75
2024-04-12T10:00:00.264Z,66.14
2024-04-12T10:01:00.167Z,66.33
2024-04-12T10:02:00.038Z,66.52
2024-04-12T10:03:00.052Z,67.52
2024-04-12T10:03:59.948Z,66.94
2024-04-12T10:04:59.796Z,66.27
2024-04-12T10:05:59.759Z,63.57
2024-04-12T10:06:59.654Z,62.83
2024-04-12T10:07:59.580Z,64.95
2024-04-12T10:08:59.554Z,64.86
2024-04-12T10:09:59.421Z,61.96
2024-04-12T10:10:59.384Z,60.80
2024-04-12T10:11:59.384Z,61.38
2024-04-12T10:12:59.192Z,60.90
2024-04-12T10:13:59.125Z,65.53
2024-04-12T10:14:59.063Z,61.65
2024-04-12T10:15:58.975Z,61.35
2024-04-12T10:16:58.907Z,61.22
2024-04-12T10:17:58.935Z,61.04
2024-04-12T10:18:58.815Z,61.07
2024-04-12T10:19:58.685Z,60.39
2024-04-12T10:20:58.640Z,61.16
2024-04-12T10:21:58.520Z,63.67
2024-04-12T10:22:58.444Z,66.75
2024-04-12T10:23:58.382Z,66.88
2024-04-12T10:24:58.294Z,63.85
2024-04-12T10:25:58.219Z,64.82
2024-04-12T10:26:58.178Z,63.02
2024-04-12T10:27:58.066Z,61.00
2024-04-12T10:28:58.022Z,60.80
2024-04-12T10:29:57.956Z,62.25
2024-04-12T10:30:57.842Z,62.73
2024-04-12T10:31:57.787Z,61.38
2024-04-12T10:32:57.851Z,59.97
2024-04-12T10:33:57.705Z,58.23
2024-04-12T10:34:57.538Z,57.85
2024-04-12T10:35:57.539Z,58.33
2024-04-12T10:36:57.402Z,57.07
2024-04-12T10:37:57.321Z,58.14
2024-04-12T10:38:57.241Z,60.26
2024-04-12T10:39:57.186Z,60.45
2024-04-12T10:40:57.091Z,59.58
2024-04-12T10:41:57.054Z,60.74
2024-04-12T10:42:56.940Z,62.22
2024-04-12T10:43:56.876Z,62.51
2024-04-12T10:44:56.892Z,62.22
2024-04-12T10:45:56.731Z,56.81
2024-04-12T10:46:56.644Z,56.81
2024-04-12T10:47:56.672Z,60.68
2024-04-12T10:48:56.492Z,61.77
2024-04-12T10:49:56.419Z,63.02
2024-04-12T10:50:56.377Z,58.68
2024-04-12T10:51:56.271Z,55.20
2024-04-12T10:52:56.193Z,54.24
2024-04-12T10:53:56.188Z,53.85
2024-04-12T10:54:56.043Z,54.62
2024-04-12T10:55:55.979Z,54.82
2024-04-12T10:56:59.290Z,57.04
2024-04-12T10:57:55.831Z,57.04
2024-04-12T10:58:55.749Z,57.90
2024-04-12T10:59:55.740Z,56.56
2024-04-12T11:00:55.638Z,54.82
2024-04-12T11:01:55.535Z,57.14
2024-04-12T11:03:02.729Z,59.16
2024-04-12T11:03:55.445Z,58.19
2024-04-12T11:04:56.608Z,56.07
2024-04-12T11:05:55.319Z,55.59
2024-04-12T11:06:55.169Z,56.36
2024-04-12T11:07:55.080Z,59.83
2024-04-12T11:08:55.024Z,60.89
2024-04-12T11:09:54.931Z,60.61
2024-04-12T11:10:54.926Z,58.39
2024-04-12T11:11:54.836Z,59.96
2024-04-12T11:12:54.710Z,61.41
2024-04-12T11:13:54.644Z,61.99
2024-04-12T11:14:54.576Z,61.70
2024-04-12T11:15:54.492Z,60.73
2024-04-12T11:16:54.412Z,58.07
2024-04-12T11:17:54.494Z,54.40
2024-04-12T11:18:54.336Z,59.52
2024-04-12T11:19:54.202Z,62.70
2024-04-12T11:20:54.162Z,59.78
2024-04-12T11:21:54.044Z,58.81
2024-04-12T11:22:53.969Z,60.42
2024-04-12T11:23:53.917Z,62.22
2024-04-12T11:24:53.821Z,63.09
2024-04-12T11:25:53.752Z,63.12
2024-04-12T11:26:53.713Z,59.17
2024-04-12T11:27:53.602Z,57.05
2024-04-12T11:28:53.524Z,59.87
2024-04-12T11:29:53.487Z,59.10
2024-04-12T11:30:53.403Z,57.01
2024-04-12T11:31:53.341Z,58.84
2024-04-12T11:32:53.279Z,61.06
2024-04-12T11:33:57.326Z,59.23
2024-04-12T11:34:53.422Z,55.49
2024-04-12T11:35:53.042Z,55.98
2024-04-12T11:36:52.936Z,58.29
2024-04-12T11:37:52.862Z,58.77
2024-04-12T11:38:52.850Z,59.83
2024-04-12T11:39:52.722Z,58.70
2024-04-12T11:40:52.636Z,58.42
2024-04-12T11:41:52.607Z,57.06
2024-04-12T11:42:52.499Z,53.59
2024-04-12T11:43:52.433Z,50.89
2024-04-12T11:44:52.362Z,52.04
2024-04-12T11:45:52.269Z,51.65
2024-04-12T11:46:52.210Z,51.10
2024-04-12T11:47:52.518Z,52.04
2024-04-12T11:48:52.105Z,51.20
2024-04-12T11:49:51.992Z,53.52
2024-04-12T11:50:51.919Z,54.75
2024-04-12T11:51:51.830Z,54.94
2024-04-12T11:52:51.756Z,52.04
2024-04-12T11:53:51.703Z,50.98
2024-04-12T11:54:51.609Z,54.43
2024-04-12T11:55:51.539Z,52.79
2024-04-12T11:56:51.491Z,53.56
2024-04-12T11:57:51.406Z,48.74
2024-04-12T11:58:51.310Z,47.58
2024-04-12T11:59:51.286Z,53.75
2024-04-12T12:00:51.180Z,51.51
2024-04-12T12:01:51.111Z,52.57
2024-04-12T12:02:51.058Z,54.02
2024-04-12T12:03:50.979Z,55.68
2024-04-12T12:04:50.867Z,55.30
2024-04-12T12:05:50.847Z,53.08
2024-04-12T12:06:50.730Z,51.53
2024-04-12T12:07:50.684Z,50.67
2024-04-12T12:08:50.588Z,50.40
2024-04-12T12:09:50.510Z,51.07
2024-04-12T12:10:50.427Z,49.82
2024-04-12T12:11:50.630Z,50.98
2024-04-12T12:12:50.311Z,49.75
2024-04-12T12:13:50.211Z,50.21
2024-04-12T12:14:50.171Z,53.49
2024-04-12T12:15:50.069Z,49.46
2024-04-12T12:16:50.025Z,46.27
2024-04-12T12:17:49.961Z,45.50
2024-04-12T12:18:49.942Z,45.89
2024-04-12T12:19:49.771Z,48.79
2024-04-12T12:20:49.705Z,53.13
2024-04-12T12:21:49.631Z,54.65
2024-04-12T12:22:49.551Z,54.36
2024-04-12T12:23:49.498Z,52.33
2024-04-12T12:24:49.606Z,48.74
2024-04-12T12:25:49.329Z,48.28
2024-04-12T12:26:49.285Z,49.15
2024-04-12T12:27:49.186Z,52.91
2024-04-12T12:28:49.107Z,51.85
2024-04-12T12:29:49.040Z,52.91
2024-04-12T12:30:48.956Z,54.39
2024-04-12T12:31:48.891Z,48.49
2024-04-12T12:32:48.897Z,46.85
2024-04-12T12:33:48.875Z,52.45
2024-04-12T12:34:48.732Z,54.39
2024-04-12T12:35:48.660Z,56.99
2024-04-12T12:36:48.520Z,54.41
2024-04-12T12:37:48.440Z,53.16
2024-04-12T12:38:48.392Z,54.13
2024-04-12T12:39:48.384Z,53.45
2024-04-12T12:40:48.222Z,53.16
2024-04-12T12:41:48.198Z,52.87
2024-04-12T12:42:48.100Z,51.49
2024-04-12T12:43:48.008Z,49.05
2024-04-12T12:44:47.945Z,50.23
2024-04-12T12:45:47.857Z,50.71
2024-04-12T12:46:47.785Z,46.47
2024-04-12T12:47:47.779Z,46.17
2024-04-12T12:48:47.715Z,45.98
2024-04-12T12:49:47.649Z,49.17
2024-04-12T12:50:47.550Z,51.75
2024-04-12T12:51:47.422Z,53.69
2024-04-12T12:52:47.966Z,54.17
2024-04-12T12:53:47.313Z,54.75
2024-04-12T12:54:47.197Z,54.36
2024-04-12T12:55:47.132Z,53.52
2024-04-12T12:56:47.068Z,51.49
2024-04-12T12:57:47.002Z,48.59
2024-04-12T12:58:46.905Z,47.14
2024-04-12T12:59:46.984Z,52.65
2024-04-12T13:00:46.944Z,55.65
2024-04-12T13:01:46.687Z,54.00
2024-04-12T13:02:46.642Z,52.77
2024-04-12T13:03:46.582Z,53.25
2024-04-12T13:04:46.570Z,50.65
2024-04-12T13:05:46.423Z,49.00
2024-04-12T13:06:46.330Z,48.52
2024-04-12T13:07:46.254Z,48.90
2024-04-12T13:08:46.198Z,50.26
2024-04-12T13:09:46.118Z,54.53
2024-04-12T13:10:46.049Z,52.02
2024-04-12T13:11:46.004Z,53.57
2024-04-12T13:12:45.890Z,52.61
2024-04-12T13:13:45.819Z,49.90
2024-04-12T13:14:45.814Z,47.48
2024-04-12T13:15:45.678Z,44.38
2024-04-12T13:16:45.603Z,44.96
2024-04-12T13:17:45.619Z,46.32
2024-04-12T13:18:45.688Z,52.14
2024-04-12T13:19:45.383Z,50.38
2024-04-12T13:20:45.316Z,51.73
2024-04-12T13:21:45.236Z,54.15
2024-04-12T13:22:45.165Z,52.61
2024-04-12T13:23:45.103Z,52.61
2024-04-12T13:24:45.059Z,53.02
2024-04-12T13:25:44.951Z,50.79
2024-04-12T13:26:44.955Z,50.28
2024-04-12T13:27:44.800Z,49.80
2024-04-12T13:28:44.730Z,46.80
2024-04-12T13:29:44.676Z,46.51
2024-04-12T13:30:44.585Z,46.30
2024-04-12T13:31:44.523Z,50.45
2024-04-12T13:32:44.899Z,52.58
2024-04-12T13:33:44.408Z,51.03
2024-04-12T13:34:44.295Z,49.00
2024-04-12T13:35:44.233Z,48.03
2024-04-12T13:36:44.153Z,47.67
2024-04-12T13:37:44.075Z,48.93
2024-04-12T13:38:44.024Z,48.54
2024-04-12T13:39:43.940Z,53.19
2024-04-12T13:40:43.885Z,53.57
2024-04-12T13:41:43.809Z,52.24
2024-04-12T13:42:43.715Z,47.48
2024-04-12T13:43:43.644Z,45.93
2024-04-12T13:44:43.576Z,46.05
2024-04-12T13:45:43.500Z,47.00
2024-04-12T13:46:45.203Z,49.92
2024-04-12T13:47:43.539Z,50.12
2024-04-12T13:48:43.331Z,46.44
2024-04-12T13:49:43.215Z,46.05
2024-04-12T13:50:43.212Z,46.34
2024-04-12T13:51:43.070Z,47.19
2024-04-12T13:52:42.995Z,46.95
2024-04-12T13:53:42.930Z,47.33
2024-04-12T13:54:42.859Z,49.24
2024-04-12T13:55:42.772Z,52.04
2024-04-12T13:56:42.713Z,53.11
2024-04-12T13:57:42.630Z,53.39
2024-04-12T13:58:42.555Z,49.82
2024-04-12T13:59:42.539Z,48.66
2024-04-12T14:00:42.443Z,47.70
2024-04-12T14:01:42.339Z,51.95
2024-04-12T14:02:42.375Z,54.19
2024-04-12T14:03:42.269Z,50.81
2024-04-12T14:04:42.119Z,48.90
2024-04-12T14:05:42.083Z,48.81
2024-04-12T14:06:41.973Z,49.58
2024-04-12T14:07:41.906Z,50.86
2024-04-12T14:08:41.850Z,52.22
2024-04-12T14:09:41.760Z,52.22
2024-04-12T14:10:41.727Z,50.57
2024-04-12T14:11:41.666Z,49.12
2024-04-12T14:12:41.543Z,49.60
2024-04-12T14:13:41.471Z,48.06
2024-04-12T14:14:41.443Z,47.89
2024-04-12T14:15:41.389Z,50.12
2024-04-12T14:16:41.275Z,50.98
2024-04-12T14:17:41.238Z,50.50
2024-04-12T14:18:41.185Z,50.02
2024-04-12T14:19:41.032Z,52.14
2024-04-12T14:20:41.000Z,52.24
2024-04-12T14:21:40.888Z,49.80
2024-04-12T14:22:40.812Z,50.86
2024-04-12T14:23:40.773Z,50.02
2024-04-12T14:24:40.674Z,49.12
2024-04-12T14:25:40.594Z,46.70
2024-04-12T14:26:40.533Z,46.51
2024-04-12T14:27:40.449Z,46.12
2024-04-12T14:28:40.378Z,46.12
2024-04-12T14:29:40.309Z,50.48
2024-04-12T14:30:40.238Z,52.80
2024-04-12T14:31:40.164Z,48.93
2024-04-12T14:32:40.119Z,47.09
2024-04-12T14:33:40.587Z,46.12
2024-04-12T14:34:39.944Z,45.83
2024-04-12T14:35:39.898Z,45.25
2024-04-12T14:36:39.796Z,46.12
2024-04-12T14:37:39.728Z,47.58
2024-04-12T14:38:41.524Z,48.25
2024-04-12T14:39:39.584Z,48.37
2024-04-12T14:40:39.508Z,48.08
2024-04-12T14:41:39.438Z,47.48
2024-04-12T14:42:39.368Z,47.00
2024-04-12T14:43:39.291Z,46.03
2024-04-12T14:44:40.604Z,46.61
2024-04-12T14:45:39.143Z,46.70
2024-04-12T14:46:39.129Z,48.35
2024-04-12T14:47:39.005Z,46.80
2024-04-12T14:48:39.064Z,46.70
2024-04-12T14:49:38.861Z,48.54
2024-04-12T14:50:40.331Z,50.28
2024-04-12T14:51:38.708Z,50.18
2024-04-12T14:52:38.637Z,49.99
2024-04-12T14:53:38.576Z,48.95
2024-04-12T14:54:38.508Z,48.93
2024-04-12T14:55:38.435Z,47.86
2024-04-12T14:56:42.773Z,48.54
2024-04-12T14:57:38.271Z,48.35
2024-04-12T14:58:38.200Z,48.35
2024-04-12T14:59:38.134Z,48.93
2024-04-12T15:00:38.087Z,48.76
2024-04-12T15:01:38.041Z,49.12
2024-04-12T15:02:39.171Z,48.57
2024-04-12T15:03:37.864Z,47.11
2024-04-12T15:04:37.767Z,46.42
2024-04-12T15:05:37.720Z,46.61
2024-04-12T15:06:37.620Z,46.12